createdAt,value
2022-09-05T00:00:06.700Z,17.53
2022-09-05T00:02:54.202Z,17.52
2022-09-05T00:06:02.550Z,17.53
2022-09-05T00:08:44.651Z,17.59
2022-09-05T00:11:42.806Z,17.57
2022-09-05T00:14:34.451Z,17.47
2022-09-05T00:17:27.833Z,17.53
2022-09-05T00:24:28.936Z,17.56
2022-09-05T00:24:45.726Z,17.58
2022-09-05T00:26:26.011Z,17.64
2022-09-05T00:29:06.184Z,17.72
2022-09-05T00:31:56.838Z,17.74
2022-09-05T00:34:56.216Z,17.75
2022-09-05T00:37:33.161Z,17.73
2022-09-05T00:40:29.342Z,17.83
2022-09-05T00:43:02.852Z,17.81
2022-09-05T00:45:36.675Z,17.83
2022-09-05T00:48:15.455Z,17.83
2022-09-05T00:50:58.359Z,17.77
2022-09-05T00:53:34.809Z,17.73
2022-09-05T00:56:14.633Z,17.80
2022-09-05T00:59:09.860Z,17.82
2022-09-05T01:01:45.350Z,17.77
2022-09-05T01:04:28.312Z,17.61
2022-09-05T01:07:10.385Z,17.85
2022-09-05T01:09:56.911Z,17.76
2022-09-05T01:12:52.820Z,17.75
2022-09-05T01:15:32.754Z,17.72
2022-09-05T01:18:31.239Z,17.71
2022-09-05T01:21:14.088Z,17.15
2022-09-05T01:23:55.493Z,17.73
2022-09-05T01:27:01.775Z,17.75
2022-09-05T01:29:41.333Z,17.77
2022-09-05T01:32:31.701Z,17.79
2022-09-05T01:35:25.826Z,17.82
2022-09-05T01:37:59.916Z,17.77
2022-09-05T01:40:38.339Z,17.81
2022-09-05T01:43:18.187Z,17.82
2022-09-05T01:45:51.246Z,17.68
2022-09-05T01:48:34.741Z,17.83
2022-09-05T01:51:29.541Z,17.87
2022-09-05T01:54:23.524Z,17.73
2022-09-05T01:57:08.260Z,17.83
2022-09-05T01:59:46.042Z,17.85
2022-09-05T02:02:32.759Z,17.71
2022-09-05T02:05:47.660Z,17.78
2022-09-05T02:08:30.022Z,17.74
2022-09-05T02:11:07.332Z,17.84
2022-09-05T02:13:53.497Z,17.76
2022-09-05T02:16:27.687Z,17.79
2022-09-05T02:19:06.613Z,17.77
2022-09-05T02:21:55.628Z,17.77
2022-09-05T02:24:30.348Z,17.74
2022-09-05T02:27:35.308Z,17.79
2022-09-05T02:30:09.467Z,17.72
2022-09-05T02:32:48.125Z,17.76
2022-09-05T02:35:25.289Z,17.77
2022-09-05T02:39:09.206Z,17.75
2022-09-05T02:45:14.498Z,17.74
2022-09-05T02:45:21.827Z,17.78
2022-09-05T02:46:46.728Z,17.70
2022-09-05T02:51:52.196Z,17.85
2022-09-05T02:57:24.732Z,17.81
2022-09-05T02:57:39.469Z,17.69
2022-09-05T02:58:27.033Z,17.62
2022-09-05T03:01:02.371Z,17.01
2022-09-05T03:03:39.167Z,17.69
2022-09-05T03:06:17.754Z,17.61
2022-09-05T03:09:24.415Z,17.64
2022-09-05T03:12:35.455Z,17.62
2022-09-05T03:15:31.167Z,17.65
2022-09-05T03:18:29.514Z,17.65
2022-09-05T03:21:57.987Z,17.61
2022-09-05T03:25:04.041Z,17.62
2022-09-05T03:28:03.408Z,17.56
2022-09-05T03:30:50.923Z,17.54
2022-09-05T03:34:12.440Z,17.53
2022-09-05T03:37:05.261Z,17.51
2022-09-05T03:39:59.426Z,17.61
2022-09-05T03:43:00.027Z,17.65
2022-09-05T03:45:49.521Z,17.69
2022-09-05T03:48:34.804Z,17.65
2022-09-05T03:57:12.399Z,17.66
2022-09-05T03:57:15.202Z,17.64
2022-09-05T03:57:42.536Z,17.59
2022-09-05T04:00:22.379Z,17.62
2022-09-05T04:08:05.953Z,17.60
2022-09-05T04:08:16.802Z,17.59
2022-09-05T04:08:55.435Z,17.57
2022-09-05T04:11:33.267Z,17.55
2022-09-05T04:14:05.651Z,17.56
2022-09-05T04:16:47.392Z,17.40
2022-09-05T04:19:22.063Z,17.55
2022-09-05T04:21:56.504Z,17.63
2022-09-05T04:24:31.355Z,17.59
2022-09-05T04:27:21.145Z,17.56
2022-09-05T04:30:11.684Z,17.54
2022-09-05T04:33:00.493Z,17.25
2022-09-05T04:35:34.884Z,17.38
2022-09-05T04:38:12.244Z,17.33
2022-09-05T04:40:43.918Z,17.42
2022-09-05T04:43:19.995Z,17.56
2022-09-05T04:45:53.490Z,17.61
2022-09-05T04:48:28.029Z,17.68
2022-09-05T04:51:06.188Z,17.71
2022-09-05T04:54:16.600Z,17.93
2022-09-05T04:56:50.531Z,17.99
2022-09-05T05:01:13.176Z,17.90
2022-09-05T05:06:02.017Z,18.06
2022-09-05T05:06:09.581Z,18.08
2022-09-05T05:08:23.893Z,18.14
2022-09-05T05:14:35.377Z,18.06
2022-09-05T05:17:55.392Z,18.13
2022-09-05T05:18:13.922Z,18.16
2022-09-05T05:19:43.333Z,17.92
2022-09-05T05:22:18.358Z,18.14
2022-09-05T05:24:49.148Z,17.81
2022-09-05T05:27:23.102Z,17.83
2022-09-05T05:29:56.598Z,18.08
2022-09-05T05:32:43.661Z,18.14
2022-09-05T05:35:17.061Z,18.18
2022-09-05T05:37:49.993Z,18.16
2022-09-05T05:40:22.914Z,18.23
2022-09-05T05:42:50.904Z,18.19
2022-09-05T05:45:21.569Z,18.27
2022-09-05T05:47:53.219Z,18.32
2022-09-05T05:50:34.563Z,18.90
2022-09-05T05:53:43.146Z,19.03
2022-09-05T05:56:39.266Z,19.26
2022-09-05T05:59:33.621Z,19.66
2022-09-05T06:02:43.401Z,19.54
2022-09-05T06:05:35.023Z,19.70
2022-09-05T06:11:40.234Z,19.56
2022-09-05T06:15:07.078Z,19.58
2022-09-05T06:15:25.155Z,20.72
2022-09-05T06:18:20.005Z,22.60
2022-09-05T06:22:08.690Z,23.11
2022-09-05T06:24:34.436Z,22.10
2022-09-05T06:27:32.914Z,20.88
2022-09-05T06:30:05.737Z,20.14
2022-09-05T06:33:09.648Z,20.38
2022-09-05T06:35:50.968Z,20.53
2022-09-05T06:38:52.891Z,20.53
2022-09-05T06:41:29.556Z,20.84
2022-09-05T06:44:40.414Z,21.38
2022-09-05T06:47:30.168Z,21.62
2022-09-05T06:50:24.120Z,21.41
2022-09-05T06:53:39.587Z,21.58
2022-09-05T06:56:30.656Z,23.15
2022-09-05T06:59:25.355Z,23.89
2022-09-05T07:02:00.608Z,22.96
2022-09-05T07:05:23.826Z,23.55
2022-09-05T07:07:34.620Z,23.91
2022-09-05T07:10:28.183Z,24.72
2022-09-05T07:13:04.743Z,25.12
2022-09-05T07:15:44.509Z,25.21
2022-09-05T07:18:20.505Z,25.38
2022-09-05T07:21:18.283Z,24.69
2022-09-05T07:24:07.118Z,24.82
2022-09-05T07:26:51.475Z,26.10
2022-09-05T07:29:28.167Z,25.67
2022-09-05T07:31:59.968Z,25.09
2022-09-05T07:34:30.833Z,25.22
2022-09-05T07:37:14.999Z,25.46
2022-09-05T07:39:54.691Z,25.96
2022-09-05T07:42:28.262Z,26.31
2022-09-05T07:44:59.311Z,24.62
2022-09-05T07:47:32.074Z,24.32
2022-09-05T07:51:00.710Z,23.91
2022-09-05T07:56:50.275Z,25.42
2022-09-05T07:57:06.156Z,26.08
2022-09-05T07:58:39.809Z,26.07
2022-09-05T08:01:10.473Z,26.64
2022-09-05T08:03:40.031Z,27.31
2022-09-05T08:06:14.844Z,26.53
2022-09-05T08:10:06.661Z,27.01
2022-09-05T08:12:04.548Z,27.27
2022-09-05T08:14:46.015Z,27.67
2022-09-05T08:17:19.505Z,28.65
2022-09-05T08:20:09.155Z,28.71
2022-09-05T08:22:52.670Z,29.22
2022-09-05T08:25:25.604Z,28.26
2022-09-05T08:28:07.536Z,26.47
2022-09-05T08:30:44.093Z,27.27
2022-09-05T08:33:16.332Z,28.23
2022-09-05T08:35:57.743Z,28.84
2022-09-05T08:38:38.784Z,29.21
2022-09-05T08:41:16.452Z,28.68
2022-09-05T08:46:41.900Z,28.62
2022-09-05T08:46:50.881Z,28.86
2022-09-05T08:49:44.017Z,28.58
2022-09-05T08:52:28.039Z,27.57
2022-09-05T08:55:07.761Z,27.21
2022-09-05T08:58:05.745Z,27.70
2022-09-05T09:00:39.431Z,28.80
2022-09-05T09:03:16.320Z,29.11
2022-09-05T09:06:15.925Z,29.30
2022-09-05T09:09:09.540Z,28.84
2022-09-05T09:11:40.140Z,29.35
2022-09-05T09:14:36.517Z,29.44
2022-09-05T09:17:20.408Z,29.65
2022-09-05T09:19:53.130Z,29.76
2022-09-05T09:22:39.339Z,29.48
2022-09-05T09:25:15.288Z,28.07
2022-09-05T09:28:48.034Z,27.92
2022-09-05T09:31:07.024Z,27.36
2022-09-05T09:33:42.899Z,27.97
2022-09-05T09:36:25.937Z,27.75
2022-09-05T09:39:38.759Z,27.64
2022-09-05T09:42:33.052Z,28.06
2022-09-05T09:45:29.669Z,27.80
2022-09-05T09:48:20.609Z,28.75
2022-09-05T09:51:05.685Z,28.60
2022-09-05T09:53:49.733Z,28.35
2022-09-05T09:56:48.491Z,27.92
2022-09-05T09:59:35.504Z,27.93
2022-09-05T10:06:43.741Z,28.49
2022-09-05T10:10:50.236Z,28.44
2022-09-05T10:10:53.991Z,28.68
2022-09-05T10:12:17.505Z,29.00
2022-09-05T10:15:30.897Z,28.50
2022-09-05T10:18:31.458Z,28.59
2022-09-05T10:21:29.601Z,28.45
2022-09-05T10:24:35.654Z,29.79
2022-09-05T10:27:29.630Z,29.91
2022-09-05T10:30:41.834Z,28.39
2022-09-05T10:35:15.498Z,27.34
2022-09-05T10:36:27.105Z,26.78
2022-09-05T10:39:18.095Z,27.38
2022-09-05T10:41:51.015Z,28.47
2022-09-05T10:44:27.182Z,27.68
2022-09-05T10:47:06.863Z,26.46
2022-09-05T10:49:38.088Z,28.44
2022-09-05T10:52:19.066Z,28.47
2022-09-05T10:55:14.665Z,28.09
2022-09-05T10:58:12.538Z,30.01
2022-09-05T11:02:29.254Z,29.12
2022-09-05T11:03:56.451Z,28.19
2022-09-05T11:06:37.107Z,28.44
2022-09-05T11:09:16.396Z,28.78
2022-09-05T11:11:51.346Z,29.98
2022-09-05T11:14:35.159Z,30.66
2022-09-05T11:17:12.912Z,28.72
2022-09-05T11:19:44.478Z,27.39
2022-09-05T11:22:23.935Z,26.95
2022-09-05T11:24:56.818Z,27.88
2022-09-05T11:27:33.075Z,27.19
2022-09-05T11:30:05.709Z,26.42
2022-09-05T11:39:47.726Z,27.06
2022-09-05T11:39:48.206Z,25.41
2022-09-05T11:40:24.830Z,27.91
2022-09-05T11:42:29.364Z,28.78
2022-09-05T11:45:20.740Z,29.05
2022-09-05T11:48:17.136Z,27.53
2022-09-05T11:51:34.112Z,28.43
2022-09-05T11:54:43.971Z,30.25
2022-09-05T11:57:42.903Z,29.46
2022-09-05T12:00:31.123Z,29.36
2022-09-05T12:03:59.439Z,30.41
2022-09-05T12:07:15.642Z,29.05
2022-09-05T12:10:46.909Z,28.89
2022-09-05T12:13:35.177Z,29.01
2022-09-05T12:16:20.054Z,28.90
2022-09-05T12:19:19.292Z,28.44
2022-09-05T12:22:08.843Z,29.44
2022-09-05T12:25:25.325Z,29.82
2022-09-05T12:29:27.514Z,29.74
2022-09-05T12:30:57.136Z,29.85
2022-09-05T12:36:09.704Z,30.17
2022-09-05T12:40:05.171Z,29.69
2022-09-05T12:40:57.773Z,29.54
2022-09-05T12:42:39.994Z,28.37
2022-09-05T12:45:32.463Z,28.50
2022-09-05T12:48:13.521Z,28.11
2022-09-05T12:50:47.064Z,28.03
2022-09-05T12:53:19.512Z,27.58
2022-09-05T12:56:02.061Z,27.68
2022-09-05T13:03:05.628Z,26.79
2022-09-05T13:03:14.613Z,27.24
2022-09-05T13:04:32.060Z,27.49
2022-09-05T13:07:09.524Z,26.99
2022-09-05T13:11:10.052Z,26.41
2022-09-05T13:14:58.637Z,26.47
2022-09-05T13:15:28.249Z,26.53
2022-09-05T13:18:02.916Z,26.49
2022-09-05T13:20:35.475Z,26.15
2022-09-05T13:23:13.915Z,25.99
2022-09-05T13:25:43.948Z,25.98
2022-09-05T13:28:15.692Z,26.22
2022-09-05T13:34:12.710Z,25.90
2022-09-05T13:38:15.471Z,25.93
2022-09-05T13:38:29.397Z,25.86
2022-09-05T13:39:29.274Z,25.72
2022-09-05T13:42:01.556Z,25.71
2022-09-05T13:44:30.784Z,25.82
2022-09-05T13:47:02.613Z,25.92
2022-09-05T13:50:05.097Z,25.98
2022-09-05T13:52:39.701Z,25.41
2022-09-05T13:55:40.080Z,25.59
2022-09-05T13:58:13.187Z,25.46
2022-09-05T14:01:23.359Z,25.70
2022-09-05T14:07:50.185Z,25.48
2022-09-05T14:10:45.145Z,25.63
2022-09-05T14:13:19.735Z,25.57
2022-09-05T14:15:53.870Z,25.52
2022-09-05T14:18:24.796Z,25.37
2022-09-05T14:21:15.264Z,25.27
2022-09-05T14:23:53.629Z,25.26
2022-09-05T14:26:29.552Z,25.46
2022-09-05T14:29:14.270Z,25.43
2022-09-05T14:37:35.356Z,25.28
2022-09-05T14:38:01.184Z,25.35
2022-09-05T14:38:15.264Z,25.37
2022-09-05T14:41:34.441Z,25.65
2022-09-05T14:44:28.673Z,25.66
2022-09-05T14:47:37.725Z,25.79
2022-09-05T14:50:38.100Z,25.82
2022-09-05T14:56:23.151Z,25.83
2022-09-05T15:02:42.069Z,25.55
2022-09-05T15:02:52.381Z,25.05
2022-09-05T15:04:44.624Z,24.81
2022-09-05T15:07:17.229Z,24.81
2022-09-05T15:12:17.314Z,24.73
2022-09-05T15:12:46.057Z,24.68
2022-09-05T15:15:22.644Z,24.62
2022-09-05T15:17:57.482Z,24.77
2022-09-05T15:20:35.789Z,24.38
2022-09-05T15:23:16.347Z,24.44
2022-09-05T15:25:48.281Z,24.48
2022-09-05T15:28:21.901Z,24.05
2022-09-05T15:30:58.807Z,23.73
2022-09-05T15:33:30.417Z,23.75
2022-09-05T15:35:59.515Z,23.90
2022-09-05T15:38:31.416Z,23.88
2022-09-05T15:41:17.273Z,23.65
2022-09-05T15:43:59.778Z,23.53
2022-09-05T15:46:37.198Z,23.42
2022-09-05T15:49:25.660Z,23.25
2022-09-05T15:51:56.836Z,23.50
2022-09-05T15:54:37.546Z,23.45
2022-09-05T15:57:15.255Z,23.49
2022-09-05T15:59:49.192Z,23.40
2022-09-05T16:02:22.074Z,23.21
2022-09-05T16:10:34.448Z,23.24
2022-09-05T16:10:49.601Z,23.01
2022-09-05T16:11:38.290Z,23.07
2022-09-05T16:13:52.984Z,22.76
2022-09-05T16:23:17.686Z,22.82
2022-09-05T16:23:26.367Z,22.72
2022-09-05T16:23:29.521Z,22.70
2022-09-05T16:25:06.119Z,22.36
2022-09-05T16:27:53.388Z,22.41
2022-09-05T16:30:24.096Z,22.22
2022-09-05T16:32:57.611Z,21.97
2022-09-05T16:35:26.655Z,22.15
2022-09-05T16:38:07.057Z,22.17
2022-09-05T16:40:39.300Z,21.94
2022-09-05T16:43:11.396Z,22.10
2022-09-05T16:45:47.656Z,21.94
2022-09-05T16:48:34.526Z,21.94
2022-09-05T16:51:15.413Z,21.67
2022-09-05T16:53:58.481Z,21.67
2022-09-05T16:56:31.235Z,21.53
2022-09-05T16:59:02.946Z,21.42
2022-09-05T17:02:06.030Z,21.26
2022-09-05T17:05:04.741Z,21.36
2022-09-05T17:07:44.305Z,21.33
2022-09-05T17:10:19.309Z,21.34
2022-09-05T17:12:51.663Z,20.99
2022-09-05T17:15:26.129Z,21.23
2022-09-05T17:18:22.292Z,20.97
2022-09-05T17:20:50.884Z,20.92
2022-09-05T17:27:57.006Z,20.83
2022-09-05T17:29:25.036Z,20.47
2022-09-05T17:29:33.769Z,20.67
2022-09-05T17:31:58.887Z,20.49
2022-09-05T17:35:17.641Z,20.51
2022-09-05T17:38:30.003Z,20.44
2022-09-05T17:41:34.731Z,20.41
2022-09-05T17:44:10.732Z,20.41
2022-09-05T17:46:48.530Z,20.53
2022-09-05T17:49:42.913Z,20.63
2022-09-05T17:52:28.677Z,20.50
2022-09-05T17:54:57.338Z,20.38
2022-09-05T17:57:41.456Z,20.42
2022-09-05T18:00:49.493Z,20.52
2022-09-05T18:04:15.974Z,20.46
2022-09-05T18:06:59.625Z,20.42
2022-09-05T18:10:14.736Z,20.30
2022-09-05T18:13:13.624Z,20.29
2022-09-05T18:16:12.023Z,20.16
2022-09-05T18:19:29.099Z,19.96
2022-09-05T18:21:49.934Z,19.97
2022-09-05T18:24:24.794Z,20.04
2022-09-05T18:27:27.450Z,19.80
2022-09-05T18:30:01.766Z,19.84
2022-09-05T18:32:47.295Z,19.71
2022-09-05T18:35:36.201Z,19.77
2022-09-05T18:38:51.674Z,19.75
2022-09-05T18:41:28.203Z,19.65
2022-09-05T18:44:13.266Z,19.59
2022-09-05T18:46:52.467Z,19.66
2022-09-05T18:50:22.141Z,19.66
2022-09-05T18:52:23.752Z,19.63
2022-09-05T18:55:31.717Z,19.52
2022-09-05T18:57:48.295Z,19.49
2022-09-05T19:00:35.203Z,19.27
2022-09-05T19:03:19.607Z,19.42
2022-09-05T19:06:04.261Z,19.34
2022-09-05T19:08:49.053Z,19.43
2022-09-05T19:11:28.671Z,19.05
2022-09-05T19:14:25.238Z,18.95
2022-09-05T19:16:49.657Z,19.27
2022-09-05T19:19:24.798Z,19.28
2022-09-05T19:21:57.179Z,19.15
2022-09-05T19:24:46.078Z,19.22
2022-09-05T19:29:56.286Z,19.16
2022-09-05T19:36:51.373Z,19.14
2022-09-05T19:36:57.699Z,19.22
2022-09-05T19:37:03.964Z,19.24
2022-09-05T19:39:01.509Z,18.91
2022-09-05T19:47:27.912Z,19.08
2022-09-05T19:47:37.702Z,19.09
2022-09-05T19:47:55.936Z,18.98
2022-09-05T19:50:21.748Z,18.94
2022-09-05T19:52:54.551Z,18.91
2022-09-05T19:55:26.177Z,18.87
2022-09-05T19:58:19.498Z,18.83
2022-09-05T20:00:55.570Z,18.76
2022-09-05T20:03:37.164Z,18.46
2022-09-05T20:06:28.646Z,18.73
2022-09-05T20:09:11.176Z,18.64
2022-09-05T20:11:46.230Z,18.73
2022-09-05T20:14:26.728Z,18.65
2022-09-05T20:16:57.862Z,18.80
2022-09-05T20:19:29.948Z,18.84
2022-09-05T20:22:12.838Z,18.69
2022-09-05T20:24:54.305Z,18.65
2022-09-05T20:27:27.526Z,18.66
2022-09-05T20:29:58.795Z,18.79
2022-09-05T20:32:39.686Z,18.74
2022-09-05T20:38:36.816Z,18.71
2022-09-05T20:43:21.593Z,18.63
2022-09-05T20:43:22.130Z,18.56
2022-09-05T20:43:55.805Z,18.36
2022-09-05T20:51:27.909Z,18.26
2022-09-05T20:54:06.773Z,18.30
2022-09-05T20:54:20.957Z,18.57
2022-09-05T20:55:38.940Z,18.50
2022-09-05T20:58:12.430Z,18.38
2022-09-05T21:01:15.379Z,18.40
2022-09-05T21:03:38.028Z,18.00
2022-09-05T21:06:22.026Z,17.74
2022-09-05T21:08:50.740Z,18.10
2022-09-05T21:11:28.639Z,18.16
2022-09-05T21:14:01.792Z,18.02
2022-09-05T21:16:32.975Z,18.01
2022-09-05T21:19:00.936Z,17.91
2022-09-05T21:21:31.220Z,17.78
2022-09-05T21:24:16.663Z,17.81
2022-09-05T21:26:48.522Z,17.86
2022-09-05T21:29:27.216Z,17.94
2022-09-05T21:32:02.001Z,17.86
2022-09-05T21:34:34.360Z,17.70
2022-09-05T21:37:07.107Z,17.43
2022-09-05T21:39:40.167Z,16.82
2022-09-05T21:42:42.803Z,17.15
2022-09-05T21:47:39.701Z,16.89
2022-09-05T21:47:53.143Z,17.10
2022-09-05T21:50:30.638Z,17.09
2022-09-05T21:53:52.369Z,16.75
2022-09-05T21:59:16.840Z,16.95
2022-09-05T21:59:36.467Z,16.82
2022-09-05T22:01:51.555Z,16.74
2022-09-05T22:04:19.350Z,16.57
2022-09-05T22:06:48.544Z,16.44
2022-09-05T22:09:17.352Z,16.55
2022-09-05T22:11:48.000Z,16.57
2022-09-05T22:14:15.865Z,16.69
2022-09-05T22:16:47.409Z,16.67
2022-09-05T22:19:22.905Z,16.26
2022-09-05T22:21:54.558Z,16.62
2022-09-05T22:24:24.295Z,16.76
2022-09-05T22:27:11.229Z,16.78
2022-09-05T22:29:41.073Z,17.04
2022-09-05T22:32:10.400Z,16.97
2022-09-05T22:34:38.324Z,16.88
2022-09-05T22:37:06.383Z,16.85
2022-09-05T22:39:37.274Z,16.73
2022-09-05T22:42:10.152Z,16.62
2022-09-05T22:44:39.690Z,16.57
2022-09-05T22:47:09.202Z,16.55
2022-09-05T22:49:38.632Z,16.46
2022-09-05T22:52:07.903Z,16.50
2022-09-05T22:54:36.347Z,16.46
2022-09-05T22:57:05.178Z,16.33
2022-09-05T22:59:33.101Z,16.30
2022-09-05T23:02:01.098Z,16.10
2022-09-05T23:04:29.275Z,16.09
2022-09-05T23:07:02.550Z,16.10
2022-09-05T23:09:30.690Z,16.11
2022-09-05T23:11:58.675Z,16.10
2022-09-05T23:14:26.567Z,16.04
2022-09-05T23:16:55.071Z,16.20
2022-09-05T23:19:22.980Z,16.20
2022-09-05T23:21:50.876Z,16.19
2022-09-05T23:24:20.179Z,16.18
2022-09-05T23:26:48.040Z,16.21
2022-09-05T23:29:16.060Z,16.18
2022-09-05T23:31:43.924Z,15.86
2022-09-05T23:34:11.824Z,16.21
2022-09-05T23:36:39.713Z,16.18
2022-09-05T23:39:07.673Z,16.13
2022-09-05T23:41:37.031Z,16.05
2022-09-05T23:44:12.146Z,15.87
2022-09-05T23:46:40.614Z,15.98
2022-09-05T23:49:08.646Z,15.90
2022-09-05T23:51:36.691Z,15.82
2022-09-05T23:54:04.756Z,15.83
2022-09-05T23:56:32.662Z,15.95
2022-09-05T23:59:01.996Z,15.93
